sensor_id;sensor_type;location;lat;lon;timestamp;P1;durP1;ratioP1;P2;durP2;ratioP2
68938;SDS011;59064;45.294;11.816;2022-10-31T00:00:22;53.60;;;32.40;;
68938;SDS011;59064;45.294;11.816;2022-10-31T00:02:47;52.70;;;32.50;;
68938;SDS011;59064;45.294;11.816;2022-10-31T00:05:14;46.80;;;28.70;;
68938;SDS011;59064;45.294;11.816;2022-10-31T00:07:39;45.30;;;27.10;;
68938;SDS011;59064;45.294;11.816;2022-10-31T00:10:05;44.00;;;27.60;;
68938;SDS011;59064;45.294;11.816;2022-10-31T00:12:31;47.60;;;29.70;;
68938;SDS011;59064;45.294;11.816;2022-10-31T00:14:57;49.80;;;28.60;;
68938;SDS011;59064;45.294;11.816;2022-10-31T00:17:22;43.20;;;27.90;;
68938;SDS011;59064;45.294;11.816;2022-10-31T00:19:48;45.40;;;29.20;;
68938;SDS011;59064;45.294;11.816;2022-10-31T00:22:13;47.00;;;27.50;;
68938;SDS011;59064;45.294;11.816;2022-10-31T00:24:39;49.70;;;30.60;;
68938;SDS011;59064;45.294;11.816;2022-10-31T00:27:04;45.60;;;29.70;;
68938;SDS011;59064;45.294;11.816;2022-10-31T00:29:30;58.60;;;34.20;;
68938;SDS011;59064;45.294;11.816;2022-10-31T00:31:55;48.70;;;33.70;;
68938;SDS011;59064;45.294;11.816;2022-10-31T00:34:21;58.60;;;34.10;;
68938;SDS011;59064;45.294;11.816;2022-10-31T00:36:46;57.30;;;35.50;;
68938;SDS011;59064;45.294;11.816;2022-10-31T00:39:12;53.70;;;34.30;;
68938;SDS011;59064;45.294;11.816;2022-10-31T00:41:37;52.80;;;34.00;;
68938;SDS011;59064;45.294;11.816;2022-10-31T00:44:02;57.30;;;35.60;;
68938;SDS011;59064;45.294;11.816;2022-10-31T00:46:28;55.90;;;35.90;;
68938;SDS011;59064;45.294;11.816;2022-10-31T00:48:53;57.70;;;35.30;;
68938;SDS011;59064;45.294;11.816;2022-10-31T00:51:19;55.50;;;35.50;;
68938;SDS011;59064;45.294;11.816;2022-10-31T00:53:44;56.40;;;35.80;;
68938;SDS011;59064;45.294;11.816;2022-10-31T00:56:10;60.20;;;36.20;;
68938;SDS011;59064;45.294;11.816;2022-10-31T00:58:35;57.10;;;35.20;;
68938;SDS011;59064;45.294;11.816;2022-10-31T01:01:02;52.20;;;33.80;;
68938;SDS011;59064;45.294;11.816;2022-10-31T01:03:29;51.90;;;34.30;;
68938;SDS011;59064;45.294;11.816;2022-10-31T01:08:22;53.70;;;32.40;;
68938;SDS011;59064;45.294;11.816;2022-10-31T01:10:57;49.10;;;31.50;;
68938;SDS011;59064;45.294;11.816;2022-10-31T01:13:26;48.90;;;31.50;;
68938;SDS011;59064;45.294;11.816;2022-10-31T01:15:55;51.80;;;30.60;;
68938;SDS011;59064;45.294;11.816;2022-10-31T01:18:22;49.40;;;29.40;;
68938;SDS011;59064;45.294;11.816;2022-10-31T01:20:56;50.20;;;30.10;;
68938;SDS011;59064;45.294;11.816;2022-10-31T01:23:41;52.20;;;31.40;;
68938;SDS011;59064;45.294;11.816;2022-10-31T01:28:36;60.80;;;34.80;;
68938;SDS011;59064;45.294;11.816;2022-10-31T01:31:07;56.40;;;35.30;;
68938;SDS011;59064;45.294;11.816;2022-10-31T01:33:34;63.10;;;37.90;;
68938;SDS011;59064;45.294;11.816;2022-10-31T01:36:00;60.00;;;37.60;;
68938;SDS011;59064;45.294;11.816;2022-10-31T01:38:26;58.90;;;36.80;;
68938;SDS011;59064;45.294;11.816;2022-10-31T01:40:52;57.70;;;36.60;;
68938;SDS011;59064;45.294;11.816;2022-10-31T01:43:18;61.20;;;35.30;;
68938;SDS011;59064;45.294;11.816;2022-10-31T01:45:45;58.00;;;34.60;;
68938;SDS011;59064;45.294;11.816;2022-10-31T01:48:17;48.60;;;32.00;;
68938;SDS011;59064;45.294;11.816;2022-10-31T01:50:46;40.00;;;26.00;;
68938;SDS011;59064;45.294;11.816;2022-10-31T01:53:15;35.80;;;22.20;;
68938;SDS011;59064;45.294;11.816;2022-10-31T01:55:42;37.00;;;22.30;;
68938;SDS011;59064;45.294;11.816;2022-10-31T01:58:13;39.70;;;23.30;;
68938;SDS011;59064;45.294;11.816;2022-10-31T02:00:43;42.60;;;25.80;;
68938;SDS011;59064;45.294;11.816;2022-10-31T02:03:11;45.70;;;30.60;;
68938;SDS011;59064;45.294;11.816;2022-10-31T02:05:38;45.90;;;29.90;;
68938;SDS011;59064;45.294;11.816;2022-10-31T02:08:08;45.00;;;29.90;;
68938;SDS011;59064;45.294;11.816;2022-10-31T02:10:46;49.00;;;31.20;;
68938;SDS011;59064;45.294;11.816;2022-10-31T02:13:12;41.60;;;26.70;;
68938;SDS011;59064;45.294;11.816;2022-10-31T02:15:39;39.00;;;23.80;;
68938;SDS011;59064;45.294;11.816;2022-10-31T02:18:05;43.30;;;28.10;;
68938;SDS011;59064;45.294;11.816;2022-10-31T02:20:43;40.70;;;25.40;;
68938;SDS011;59064;45.294;11.816;2022-10-31T02:25:51;44.10;;;26.50;;
68938;SDS011;59064;45.294;11.816;2022-10-31T02:31:33;39.00;;;24.00;;
68938;SDS011;59064;45.294;11.816;2022-10-31T02:34:17;37.10;;;22.40;;
68938;SDS011;59064;45.294;11.816;2022-10-31T02:37:08;38.20;;;22.60;;
68938;SDS011;59064;45.294;11.816;2022-10-31T02:45:25;39.80;;;23.10;;
68938;SDS011;59064;45.294;11.816;2022-10-31T02:47:55;42.00;;;24.80;;
68938;SDS011;59064;45.294;11.816;2022-10-31T02:50:30;38.20;;;25.20;;
68938;SDS011;59064;45.294;11.816;2022-10-31T02:53:00;49.80;;;30.00;;
68938;SDS011;59064;45.294;11.816;2022-10-31T03:12:12;56.40;;;32.30;;
68938;SDS011;59064;45.294;11.816;2022-10-31T03:14:56;47.00;;;28.50;;
68938;SDS011;59064;45.294;11.816;2022-10-31T03:17:33;44.80;;;28.70;;
68938;SDS011;59064;45.294;11.816;2022-10-31T03:20:04;37.90;;;25.20;;
68938;SDS011;59064;45.294;11.816;2022-10-31T03:22:34;40.90;;;24.40;;
68938;SDS011;59064;45.294;11.816;2022-10-31T03:25:01;34.60;;;23.20;;
68938;SDS011;59064;45.294;11.816;2022-10-31T03:27:29;36.50;;;24.70;;
68938;SDS011;59064;45.294;11.816;2022-10-31T03:29:58;34.70;;;22.60;;
68938;SDS011;59064;45.294;11.816;2022-10-31T03:32:28;37.30;;;23.60;;
68938;SDS011;59064;45.294;11.816;2022-10-31T03:34:58;32.60;;;22.20;;
68938;SDS011;59064;45.294;11.816;2022-10-31T03:37:27;35.30;;;22.20;;
68938;SDS011;59064;45.294;11.816;2022-10-31T03:39:54;35.40;;;22.90;;
68938;SDS011;59064;45.294;11.816;2022-10-31T03:42:22;37.30;;;24.00;;
68938;SDS011;59064;45.294;11.816;2022-10-31T03:44:52;42.20;;;24.90;;
68938;SDS011;59064;45.294;11.816;2022-10-31T03:47:20;40.20;;;24.80;;
68938;SDS011;59064;45.294;11.816;2022-10-31T03:49:47;41.40;;;24.60;;
68938;SDS011;59064;45.294;11.816;2022-10-31T03:54:45;41.70;;;25.50;;
68938;SDS011;59064;45.294;11.816;2022-10-31T03:57:49;40.90;;;27.40;;
68938;SDS011;59064;45.294;11.816;2022-10-31T04:00:13;44.70;;;28.90;;
68938;SDS011;59064;45.294;11.816;2022-10-31T04:02:42;43.00;;;27.70;;
68938;SDS011;59064;45.294;11.816;2022-10-31T04:05:14;51.30;;;30.80;;
68938;SDS011;59064;45.294;11.816;2022-10-31T04:07:43;39.30;;;25.00;;
68938;SDS011;59064;45.294;11.816;2022-10-31T04:10:12;37.70;;;24.30;;
68938;SDS011;59064;45.294;11.816;2022-10-31T04:12:39;44.40;;;25.50;;
68938;SDS011;59064;45.294;11.816;2022-10-31T04:15:06;38.00;;;25.20;;
68938;SDS011;59064;45.294;11.816;2022-10-31T04:17:34;38.20;;;25.30;;
68938;SDS011;59064;45.294;11.816;2022-10-31T04:20:04;34.20;;;23.00;;
68938;SDS011;59064;45.294;11.816;2022-10-31T04:22:30;31.40;;;22.30;;
68938;SDS011;59064;45.294;11.816;2022-10-31T04:24:56;34.40;;;23.90;;
68938;SDS011;59064;45.294;11.816;2022-10-31T04:27:22;44.60;;;27.50;;
68938;SDS011;59064;45.294;11.816;2022-10-31T04:29:48;36.40;;;26.40;;
68938;SDS011;59064;45.294;11.816;2022-10-31T04:32:13;34.90;;;25.50;;
68938;SDS011;59064;45.294;11.816;2022-10-31T04:34:38;44.40;;;25.90;;
68938;SDS011;59064;45.294;11.816;2022-10-31T04:37:04;39.10;;;26.00;;
68938;SDS011;59064;45.294;11.816;2022-10-31T04:39:29;38.20;;;26.90;;
68938;SDS011;59064;45.294;11.816;2022-10-31T04:41:55;38.30;;;26.50;;
68938;SDS011;59064;45.294;11.816;2022-10-31T04:44:20;49.10;;;30.50;;
68938;SDS011;59064;45.294;11.816;2022-10-31T04:46:46;60.80;;;37.50;;
68938;SDS011;59064;45.294;11.816;2022-10-31T04:49:11;61.80;;;37.30;;
68938;SDS011;59064;45.294;11.816;2022-10-31T04:51:37;45.20;;;27.80;;
68938;SDS011;59064;45.294;11.816;2022-10-31T04:54:03;41.00;;;27.60;;
68938;SDS011;59064;45.294;11.816;2022-10-31T04:56:28;36.20;;;23.10;;
68938;SDS011;59064;45.294;11.816;2022-10-31T04:58:54;32.50;;;21.40;;
68938;SDS011;59064;45.294;11.816;2022-10-31T05:01:19;33.60;;;24.10;;
68938;SDS011;59064;45.294;11.816;2022-10-31T05:03:45;36.30;;;24.20;;
68938;SDS011;59064;45.294;11.816;2022-10-31T05:06:10;32.00;;;23.60;;
68938;SDS011;59064;45.294;11.816;2022-10-31T05:08:36;33.40;;;23.40;;
68938;SDS011;59064;45.294;11.816;2022-10-31T05:11:04;28.70;;;22.20;;
68938;SDS011;59064;45.294;11.816;2022-10-31T05:13:31;31.90;;;22.50;;
68938;SDS011;59064;45.294;11.816;2022-10-31T05:15:56;28.50;;;21.80;;
68938;SDS011;59064;45.294;11.816;2022-10-31T05:18:22;32.00;;;23.10;;
68938;SDS011;59064;45.294;11.816;2022-10-31T05:20:48;26.50;;;18.10;;
68938;SDS011;59064;45.294;11.816;2022-10-31T05:23:13;30.00;;;19.90;;
68938;SDS011;59064;45.294;11.816;2022-10-31T05:25:39;32.50;;;22.90;;
68938;SDS011;59064;45.294;11.816;2022-10-31T05:28:06;32.40;;;21.60;;
68938;SDS011;59064;45.294;11.816;2022-10-31T05:30:32;37.20;;;25.90;;
68938;SDS011;59064;45.294;11.816;2022-10-31T05:32:59;37.50;;;25.50;;
68938;SDS011;59064;45.294;11.816;2022-10-31T05:35:29;38.80;;;25.60;;
68938;SDS011;59064;45.294;11.816;2022-10-31T05:37:56;41.90;;;25.10;;
68938;SDS011;59064;45.294;11.816;2022-10-31T05:40:25;40.20;;;26.20;;
68938;SDS011;59064;45.294;11.816;2022-10-31T05:42:52;38.40;;;26.40;;
68938;SDS011;59064;45.294;11.816;2022-10-31T05:45:19;40.10;;;25.30;;
68938;SDS011;59064;45.294;11.816;2022-10-31T05:47:59;36.60;;;24.70;;
68938;SDS011;59064;45.294;11.816;2022-10-31T05:50:26;34.90;;;23.20;;
68938;SDS011;59064;45.294;11.816;2022-10-31T05:52:57;34.00;;;23.10;;
68938;SDS011;59064;45.294;11.816;2022-10-31T05:55:25;39.10;;;25.70;;
68938;SDS011;59064;45.294;11.816;2022-10-31T05:57:51;33.70;;;24.50;;
68938;SDS011;59064;45.294;11.816;2022-10-31T06:00:18;37.10;;;23.60;;
68938;SDS011;59064;45.294;11.816;2022-10-31T06:02:44;37.90;;;24.70;;
68938;SDS011;59064;45.294;11.816;2022-10-31T06:05:10;36.10;;;23.80;;
68938;SDS011;59064;45.294;11.816;2022-10-31T06:07:35;38.90;;;25.50;;
68938;SDS011;59064;45.294;11.816;2022-10-31T06:10:02;34.40;;;23.90;;
68938;SDS011;59064;45.294;11.816;2022-10-31T06:12:30;39.80;;;23.60;;
68938;SDS011;59064;45.294;11.816;2022-10-31T06:14:55;34.90;;;24.30;;
68938;SDS011;59064;45.294;11.816;2022-10-31T06:17:22;35.00;;;22.30;;
68938;SDS011;59064;45.294;11.816;2022-10-31T06:19:47;32.60;;;22.20;;
68938;SDS011;59064;45.294;11.816;2022-10-31T06:22:13;36.50;;;24.10;;
68938;SDS011;59064;45.294;11.816;2022-10-31T06:24:38;31.30;;;21.70;;
68938;SDS011;59064;45.294;11.816;2022-10-31T06:27:04;29.60;;;19.60;;
68938;SDS011;59064;45.294;11.816;2022-10-31T06:29:30;28.40;;;19.60;;
68938;SDS011;59064;45.294;11.816;2022-10-31T06:31:56;28.20;;;19.70;;
68938;SDS011;59064;45.294;11.816;2022-10-31T06:34:21;24.80;;;18.80;;
68938;SDS011;59064;45.294;11.816;2022-10-31T06:36:47;25.90;;;18.70;;
68938;SDS011;59064;45.294;11.816;2022-10-31T06:39:12;25.90;;;17.90;;
68938;SDS011;59064;45.294;11.816;2022-10-31T06:41:38;25.40;;;19.30;;
68938;SDS011;59064;45.294;11.816;2022-10-31T06:44:05;24.60;;;17.30;;
68938;SDS011;59064;45.294;11.816;2022-10-31T06:46:31;22.70;;;17.30;;
68938;SDS011;59064;45.294;11.816;2022-10-31T06:48:57;23.80;;;17.60;;
68938;SDS011;59064;45.294;11.816;2022-10-31T06:51:22;23.10;;;16.60;;
68938;SDS011;59064;45.294;11.816;2022-10-31T06:53:48;21.70;;;15.90;;
68938;SDS011;59064;45.294;11.816;2022-10-31T06:56:13;22.40;;;17.20;;
68938;SDS011;59064;45.294;11.816;2022-10-31T06:58:39;23.90;;;16.80;;
68938;SDS011;59064;45.294;11.816;2022-10-31T07:01:05;24.20;;;16.90;;
68938;SDS011;59064;45.294;11.816;2022-10-31T07:03:30;24.10;;;17.90;;
68938;SDS011;59064;45.294;11.816;2022-10-31T07:05:56;23.70;;;17.20;;
68938;SDS011;59064;45.294;11.816;2022-10-31T07:08:22;25.30;;;18.40;;
68938;SDS011;59064;45.294;11.816;2022-10-31T07:10:52;26.00;;;18.20;;
68938;SDS011;59064;45.294;11.816;2022-10-31T07:13:19;28.20;;;19.60;;
68938;SDS011;59064;45.294;11.816;2022-10-31T07:15:49;24.70;;;16.90;;
68938;SDS011;59064;45.294;11.816;2022-10-31T07:18:15;28.70;;;19.10;;
68938;SDS011;59064;45.294;11.816;2022-10-31T07:20:40;28.70;;;20.10;;
68938;SDS011;59064;45.294;11.816;2022-10-31T07:23:07;29.40;;;21.80;;
68938;SDS011;59064;45.294;11.816;2022-10-31T07:25:33;33.40;;;24.00;;
68938;SDS011;59064;45.294;11.816;2022-10-31T07:27:59;32.40;;;22.70;;
68938;SDS011;59064;45.294;11.816;2022-10-31T07:30:24;30.50;;;22.70;;
68938;SDS011;59064;45.294;11.816;2022-10-31T07:32:50;31.00;;;21.30;;
68938;SDS011;59064;45.294;11.816;2022-10-31T07:35:19;30.20;;;21.60;;
68938;SDS011;59064;45.294;11.816;2022-10-31T07:40:21;33.30;;;22.70;;
68938;SDS011;59064;45.294;11.816;2022-10-31T07:42:48;35.20;;;23.50;;
68938;SDS011;59064;45.294;11.816;2022-10-31T07:45:17;33.70;;;22.40;;
68938;SDS011;59064;45.294;11.816;2022-10-31T07:47:45;30.80;;;20.40;;
68938;SDS011;59064;45.294;11.816;2022-10-31T07:50:12;32.50;;;22.60;;
68938;SDS011;59064;45.294;11.816;2022-10-31T07:52:39;34.10;;;23.70;;
68938;SDS011;59064;45.294;11.816;2022-10-31T07:55:05;35.00;;;23.70;;
68938;SDS011;59064;45.294;11.816;2022-10-31T07:57:31;33.50;;;25.00;;
68938;SDS011;59064;45.294;11.816;2022-10-31T07:59:57;32.30;;;22.20;;
68938;SDS011;59064;45.294;11.816;2022-10-31T08:02:23;30.70;;;23.20;;
68938;SDS011;59064;45.294;11.816;2022-10-31T08:04:50;37.90;;;25.70;;
68938;SDS011;59064;45.294;11.816;2022-10-31T08:07:15;36.10;;;25.20;;
68938;SDS011;59064;45.294;11.816;2022-10-31T08:09:41;31.40;;;23.00;;
68938;SDS011;59064;45.294;11.816;2022-10-31T08:12:07;32.20;;;23.20;;
68938;SDS011;59064;45.294;11.816;2022-10-31T08:14:32;35.70;;;24.30;;
68938;SDS011;59064;45.294;11.816;2022-10-31T08:16:58;29.00;;;22.00;;
68938;SDS011;59064;45.294;11.816;2022-10-31T08:19:23;30.60;;;21.70;;
68938;SDS011;59064;45.294;11.816;2022-10-31T08:21:52;32.60;;;22.50;;
68938;SDS011;59064;45.294;11.816;2022-10-31T08:24:20;31.90;;;23.80;;
68938;SDS011;59064;45.294;11.816;2022-10-31T08:26:46;33.60;;;23.60;;
68938;SDS011;59064;45.294;11.816;2022-10-31T08:29:12;31.30;;;22.80;;
68938;SDS011;59064;45.294;11.816;2022-10-31T08:31:38;31.50;;;23.30;;
68938;SDS011;59064;45.294;11.816;2022-10-31T08:34:03;32.90;;;24.60;;
68938;SDS011;59064;45.294;11.816;2022-10-31T08:36:29;38.90;;;26.20;;
68938;SDS011;59064;45.294;11.816;2022-10-31T08:38:55;32.70;;;24.20;;
68938;SDS011;59064;45.294;11.816;2022-10-31T08:41:20;34.80;;;26.00;;
68938;SDS011;59064;45.294;11.816;2022-10-31T08:43:47;37.70;;;26.60;;
68938;SDS011;59064;45.294;11.816;2022-10-31T08:46:12;36.90;;;26.80;;
68938;SDS011;59064;45.294;11.816;2022-10-31T08:48:38;34.60;;;25.50;;
68938;SDS011;59064;45.294;11.816;2022-10-31T08:51:03;41.30;;;28.60;;
68938;SDS011;59064;45.294;11.816;2022-10-31T08:53:29;38.60;;;28.80;;
68938;SDS011;59064;45.294;11.816;2022-10-31T08:55:56;39.20;;;27.30;;
68938;SDS011;59064;45.294;11.816;2022-10-31T08:58:22;41.90;;;28.80;;
68938;SDS011;59064;45.294;11.816;2022-10-31T09:00:50;40.70;;;28.50;;
68938;SDS011;59064;45.294;11.816;2022-10-31T09:05:44;41.60;;;28.20;;
68938;SDS011;59064;45.294;11.816;2022-10-31T09:08:11;35.70;;;25.40;;
68938;SDS011;59064;45.294;11.816;2022-10-31T09:10:37;41.60;;;30.50;;
68938;SDS011;59064;45.294;11.816;2022-10-31T09:13:10;39.30;;;28.20;;
68938;SDS011;59064;45.294;11.816;2022-10-31T09:15:38;40.70;;;28.50;;
68938;SDS011;59064;45.294;11.816;2022-10-31T09:18:05;33.30;;;25.50;;
68938;SDS011;59064;45.294;11.816;2022-10-31T09:20:32;38.80;;;27.90;;
68938;SDS011;59064;45.294;11.816;2022-10-31T09:23:10;38.00;;;27.90;;
68938;SDS011;59064;45.294;11.816;2022-10-31T09:25:43;44.60;;;28.80;;
68938;SDS011;59064;45.294;11.816;2022-10-31T09:28:11;53.10;;;32.40;;
68938;SDS011;59064;45.294;11.816;2022-10-31T09:30:38;54.10;;;34.20;;
68938;SDS011;59064;45.294;11.816;2022-10-31T09:33:05;90.10;;;53.60;;
68938;SDS011;59064;45.294;11.816;2022-10-31T09:35:37;102.80;;;64.60;;
68938;SDS011;59064;45.294;11.816;2022-10-31T09:38:08;48.60;;;32.40;;
68938;SDS011;59064;45.294;11.816;2022-10-31T09:40:36;39.90;;;25.60;;
68938;SDS011;59064;45.294;11.816;2022-10-31T09:43:11;48.90;;;33.10;;
68938;SDS011;59064;45.294;11.816;2022-10-31T09:53:51;42.80;;;29.80;;
68938;SDS011;59064;45.294;11.816;2022-10-31T09:56:31;49.30;;;31.70;;
68938;SDS011;59064;45.294;11.816;2022-10-31T09:59:01;48.40;;;30.70;;
68938;SDS011;59064;45.294;11.816;2022-10-31T10:10:13;39.10;;;28.30;;
68938;SDS011;59064;45.294;11.816;2022-10-31T10:26:37;41.70;;;27.50;;
68938;SDS011;59064;45.294;11.816;2022-10-31T10:29:15;36.70;;;25.30;;
68938;SDS011;59064;45.294;11.816;2022-10-31T10:31:52;40.10;;;26.70;;
68938;SDS011;59064;45.294;11.816;2022-10-31T10:36:53;41.30;;;25.20;;
68938;SDS011;59064;45.294;11.816;2022-10-31T10:39:25;43.90;;;29.60;;
68938;SDS011;59064;45.294;11.816;2022-10-31T10:42:12;37.00;;;21.90;;
68938;SDS011;59064;45.294;11.816;2022-10-31T10:44:59;42.90;;;29.30;;
68938;SDS011;59064;45.294;11.816;2022-10-31T10:47:47;34.90;;;23.30;;
68938;SDS011;59064;45.294;11.816;2022-10-31T10:50:24;42.20;;;25.90;;
68938;SDS011;59064;45.294;11.816;2022-10-31T10:53:01;38.10;;;26.40;;
68938;SDS011;59064;45.294;11.816;2022-10-31T10:58:03;30.10;;;21.60;;
68938;SDS011;59064;45.294;11.816;2022-10-31T11:00:32;38.30;;;25.60;;
68938;SDS011;59064;45.294;11.816;2022-10-31T11:03:06;37.80;;;25.70;;
68938;SDS011;59064;45.294;11.816;2022-10-31T11:11:04;45.50;;;29.90;;
68938;SDS011;59064;45.294;11.816;2022-10-31T11:13:39;36.70;;;25.80;;
68938;SDS011;59064;45.294;11.816;2022-10-31T11:16:07;40.90;;;27.00;;
68938;SDS011;59064;45.294;11.816;2022-10-31T11:18:54;36.70;;;25.80;;
68938;SDS011;59064;45.294;11.816;2022-10-31T11:21:41;37.50;;;25.00;;
68938;SDS011;59064;45.294;11.816;2022-10-31T11:27:45;37.00;;;25.40;;
68938;SDS011;59064;45.294;11.816;2022-10-31T11:30:14;39.90;;;26.20;;
68938;SDS011;59064;45.294;11.816;2022-10-31T11:32:42;40.10;;;26.00;;
68938;SDS011;59064;45.294;11.816;2022-10-31T11:35:14;38.60;;;26.60;;
68938;SDS011;59064;45.294;11.816;2022-10-31T11:37:44;37.30;;;25.00;;
68938;SDS011;59064;45.294;11.816;2022-10-31T11:40:18;36.70;;;22.20;;
68938;SDS011;59064;45.294;11.816;2022-10-31T11:42:49;36.10;;;24.30;;
68938;SDS011;59064;45.294;11.816;2022-10-31T11:47:46;34.50;;;24.30;;
68938;SDS011;59064;45.294;11.816;2022-10-31T11:50:24;38.40;;;26.00;;
68938;SDS011;59064;45.294;11.816;2022-10-31T11:52:53;32.00;;;23.60;;
68938;SDS011;59064;45.294;11.816;2022-10-31T11:55:30;37.40;;;24.30;;
68938;SDS011;59064;45.294;11.816;2022-10-31T11:57:58;32.20;;;20.40;;
68938;SDS011;59064;45.294;11.816;2022-10-31T12:02:50;35.00;;;21.90;;
68938;SDS011;59064;45.294;11.816;2022-10-31T12:05:23;39.60;;;26.50;;
68938;SDS011;59064;45.294;11.816;2022-10-31T12:07:58;39.60;;;26.50;;
68938;SDS011;59064;45.294;11.816;2022-10-31T12:10:25;42.50;;;27.40;;
68938;SDS011;59064;45.294;11.816;2022-10-31T12:16:00;36.60;;;23.90;;
68938;SDS011;59064;45.294;11.816;2022-10-31T12:18:37;34.30;;;23.60;;
68938;SDS011;59064;45.294;11.816;2022-10-31T12:29:36;35.40;;;22.00;;
68938;SDS011;59064;45.294;11.816;2022-10-31T12:46:00;34.00;;;21.70;;
68938;SDS011;59064;45.294;11.816;2022-10-31T12:51:08;32.60;;;20.00;;
68938;SDS011;59064;45.294;11.816;2022-10-31T12:59:22;36.70;;;23.50;;
68938;SDS011;59064;45.294;11.816;2022-10-31T13:01:58;29.00;;;20.60;;
68938;SDS011;59064;45.294;11.816;2022-10-31T13:07:04;31.10;;;17.50;;
68938;SDS011;59064;45.294;11.816;2022-10-31T13:12:38;32.70;;;18.90;;
68938;SDS011;59064;45.294;11.816;2022-10-31T13:15:16;27.50;;;17.00;;
68938;SDS011;59064;45.294;11.816;2022-10-31T13:17:50;30.60;;;15.60;;
68938;SDS011;59064;45.294;11.816;2022-10-31T13:20:30;30.30;;;18.90;;
68938;SDS011;59064;45.294;11.816;2022-10-31T13:25:58;32.30;;;16.80;;
68938;SDS011;59064;45.294;11.816;2022-10-31T13:28:43;30.40;;;18.00;;
68938;SDS011;59064;45.294;11.816;2022-10-31T13:31:16;31.10;;;16.50;;
68938;SDS011;59064;45.294;11.816;2022-10-31T13:33:46;26.50;;;15.90;;
68938;SDS011;59064;45.294;11.816;2022-10-31T13:44:23;33.80;;;18.10;;
68938;SDS011;59064;45.294;11.816;2022-10-31T13:46:50;23.40;;;11.60;;
68938;SDS011;59064;45.294;11.816;2022-10-31T13:54:37;28.80;;;17.20;;
68938;SDS011;59064;45.294;11.816;2022-10-31T13:57:15;34.40;;;18.30;;
68938;SDS011;59064;45.294;11.816;2022-10-31T13:59:46;29.10;;;16.80;;
68938;SDS011;59064;45.294;11.816;2022-10-31T14:02:16;32.40;;;19.30;;
68938;SDS011;59064;45.294;11.816;2022-10-31T14:04:51;30.60;;;16.80;;
68938;SDS011;59064;45.294;11.816;2022-10-31T14:07:21;31.00;;;16.50;;
68938;SDS011;59064;45.294;11.816;2022-10-31T14:12:25;31.90;;;16.10;;
68938;SDS011;59064;45.294;11.816;2022-10-31T14:14:59;35.80;;;17.30;;
68938;SDS011;59064;45.294;11.816;2022-10-31T14:17:31;29.20;;;14.40;;
68938;SDS011;59064;45.294;11.816;2022-10-31T14:22:36;28.90;;;15.70;;
68938;SDS011;59064;45.294;11.816;2022-10-31T14:28:19;30.90;;;16.70;;
68938;SDS011;59064;45.294;11.816;2022-10-31T14:30:53;24.70;;;13.40;;
68938;SDS011;59064;45.294;11.816;2022-10-31T14:33:22;24.20;;;14.60;;
68938;SDS011;59064;45.294;11.816;2022-10-31T14:35:55;26.00;;;13.90;;
68938;SDS011;59064;45.294;11.816;2022-10-31T14:38:29;27.00;;;14.90;;
68938;SDS011;59064;45.294;11.816;2022-10-31T14:43:29;26.10;;;14.50;;
68938;SDS011;59064;45.294;11.816;2022-10-31T14:46:08;25.10;;;13.30;;
68938;SDS011;59064;45.294;11.816;2022-10-31T14:51:20;24.30;;;11.50;;
68938;SDS011;59064;45.294;11.816;2022-10-31T14:53:48;25.60;;;12.00;;
68938;SDS011;59064;45.294;11.816;2022-10-31T14:56:19;27.40;;;12.20;;
68938;SDS011;59064;45.294;11.816;2022-10-31T14:58:50;26.00;;;12.10;;
68938;SDS011;59064;45.294;11.816;2022-10-31T15:01:26;23.90;;;12.00;;
68938;SDS011;59064;45.294;11.816;2022-10-31T15:03:58;24.60;;;11.30;;
68938;SDS011;59064;45.294;11.816;2022-10-31T15:06:30;29.00;;;11.80;;
68938;SDS011;59064;45.294;11.816;2022-10-31T15:09:05;21.80;;;11.00;;
68938;SDS011;59064;45.294;11.816;2022-10-31T15:11:35;23.10;;;10.70;;
68938;SDS011;59064;45.294;11.816;2022-10-31T15:14:14;21.80;;;10.40;;
68938;SDS011;59064;45.294;11.816;2022-10-31T15:16:46;20.40;;;10.70;;
68938;SDS011;59064;45.294;11.816;2022-10-31T15:19:14;20.10;;;9.60;;
68938;SDS011;59064;45.294;11.816;2022-10-31T15:21:44;21.10;;;10.40;;
68938;SDS011;59064;45.294;11.816;2022-10-31T15:24:15;21.80;;;9.50;;
68938;SDS011;59064;45.294;11.816;2022-10-31T15:26:52;24.40;;;10.50;;
68938;SDS011;59064;45.294;11.816;2022-10-31T15:29:25;23.50;;;9.70;;
68938;SDS011;59064;45.294;11.816;2022-10-31T15:32:09;20.40;;;9.70;;
68938;SDS011;59064;45.294;11.816;2022-10-31T15:35:02;23.30;;;9.90;;
68938;SDS011;59064;45.294;11.816;2022-10-31T15:37:34;22.80;;;9.90;;
68938;SDS011;59064;45.294;11.816;2022-10-31T15:40:06;22.90;;;10.20;;
68938;SDS011;59064;45.294;11.816;2022-10-31T15:42:33;23.40;;;10.50;;
68938;SDS011;59064;45.294;11.816;2022-10-31T15:45:16;28.80;;;10.80;;
68938;SDS011;59064;45.294;11.816;2022-10-31T15:47:57;22.50;;;10.40;;
68938;SDS011;59064;45.294;11.816;2022-10-31T15:52:53;24.90;;;10.90;;
68938;SDS011;59064;45.294;11.816;2022-10-31T15:55:23;23.20;;;11.00;;
68938;SDS011;59064;45.294;11.816;2022-10-31T15:57:54;22.30;;;11.30;;
68938;SDS011;59064;45.294;11.816;2022-10-31T16:03:00;25.30;;;11.30;;
68938;SDS011;59064;45.294;11.816;2022-10-31T16:10:55;29.90;;;13.90;;
68938;SDS011;59064;45.294;11.816;2022-10-31T16:13:29;27.60;;;13.90;;
68938;SDS011;59064;45.294;11.816;2022-10-31T16:16:00;26.10;;;13.50;;
68938;SDS011;59064;45.294;11.816;2022-10-31T16:18:28;24.30;;;12.30;;
68938;SDS011;59064;45.294;11.816;2022-10-31T16:20:56;24.30;;;11.80;;
68938;SDS011;59064;45.294;11.816;2022-10-31T16:23:23;22.30;;;11.80;;
68938;SDS011;59064;45.294;11.816;2022-10-31T16:25:51;29.00;;;13.70;;
68938;SDS011;59064;45.294;11.816;2022-10-31T16:28:18;22.20;;;13.50;;
68938;SDS011;59064;45.294;11.816;2022-10-31T16:30:47;20.60;;;12.30;;
68938;SDS011;59064;45.294;11.816;2022-10-31T16:35:46;28.60;;;14.40;;
68938;SDS011;59064;45.294;11.816;2022-10-31T16:38:12;23.50;;;12.30;;
68938;SDS011;59064;45.294;11.816;2022-10-31T16:40:38;27.40;;;12.20;;
68938;SDS011;59064;45.294;11.816;2022-10-31T16:43:04;22.50;;;11.20;;
68938;SDS011;59064;45.294;11.816;2022-10-31T16:45:36;28.60;;;12.20;;
68938;SDS011;59064;45.294;11.816;2022-10-31T16:48:03;25.30;;;10.90;;
68938;SDS011;59064;45.294;11.816;2022-10-31T16:50:35;26.40;;;14.00;;
68938;SDS011;59064;45.294;11.816;2022-10-31T16:53:03;29.60;;;16.40;;
68938;SDS011;59064;45.294;11.816;2022-10-31T16:55:30;32.60;;;15.90;;
68938;SDS011;59064;45.294;11.816;2022-10-31T16:58:00;30.70;;;16.40;;
68938;SDS011;59064;45.294;11.816;2022-10-31T17:00:26;36.50;;;19.70;;
68938;SDS011;59064;45.294;11.816;2022-10-31T17:02:53;32.80;;;19.50;;
68938;SDS011;59064;45.294;11.816;2022-10-31T17:05:22;36.20;;;22.20;;
68938;SDS011;59064;45.294;11.816;2022-10-31T17:07:55;37.60;;;20.60;;
68938;SDS011;59064;45.294;11.816;2022-10-31T17:10:21;48.20;;;25.00;;
68938;SDS011;59064;45.294;11.816;2022-10-31T17:12:47;46.80;;;27.90;;